EST,Max TemperatureF,Mean TemperatureF,Min TemperatureF,Max Dew PointF,MeanDew PointF,Min DewpointF,Max Humidity, Mean Humidity, Min Humidity, Max Sea Level PressureIn, Mean Sea Level PressureIn, Min Sea Level PressureIn, Max VisibilityMiles, Mean VisibilityMiles, Min VisibilityMiles, Max Wind SpeedMPH, Mean Wind SpeedMPH, Max Gust SpeedMPH,PrecipitationIn, CloudCover, Events, WindDirDegrees
2013-1-1,25,17,9,16,11,6,84,66,56,30.13,30.05,29.99,10,10,10,12,6,17,0.00,7,Snow,307
2013-1-2,24,20,16,19,14,10,82,76,72,30.15,30.10,30.03,10,10,7,10,7,18,0.00,8,Snow,266
2013-1-3,28,23,18,24,19,11,86,79,71,30.12,30.06,29.99,10,8,1,12,8,21,0.00,8,Snow,240
2013-1-4,31,28,24,23,21,19,82,74,67,30.14,30.01,29.93,10,10,10,24,14,33,0.00,3,,244
2013-1-5,33,21,9,30,21,7,97,85,71,30.23,30.12,29.98,10,7,1,12,5,16,0.00,3,Snow,207
2013-1-6,34,32,29,32,30,25,95,89,81,30.23,29.97,29.86,10,7,2,14,9,18,0.00,8,Rain-Snow,254
2013-1-7,35,32,28,25,23,20,86,73,60,30.33,30.22,30.10,10,10,10,18,7,29,0.00,3,,205
2013-1-8,37,32,26,27,23,20,81,73,64,30.21,30.16,30.11,10,10,7,14,8,22,0.00,0,,198
2013-1-9,44,38,28,32,28,24,88,69,48,30.40,30.12,29.97,10,10,7,28,12,37,0.00,2,Rain,240
2013-1-10,40,30,21,32,26,20,96,83,60,30.56,30.44,30.19,10,10,4,12,3,16,0.05,1,Rain,137
2013-1-11,49,41,33,48,40,32,97,93,85,30.16,29.87,29.74,10,7,2,13,9,21,0.68,6,Rain,170
2013-1-12,58,50,43,47,43,38,92,78,59,29.93,29.86,29.80,10,10,10,14,7,20,0.00,0,,213
2013-1-13,43,36,28,39,35,24,98,93,78,29.99,29.86,29.78,10,8,2,17,5,26,0.19,8,Rain-Snow,305
2013-1-14,27,22,17,24,16,14,91,79,67,30.41,30.29,30.00,10,10,7,20,11,31,0.00,5,Snow,275
2013-1-15,29,22,14,22,17,12,95,81,60,30.41,30.31,30.14,10,10,7,5,0,,0.00,0,,227
2013-1-16,35,26,16,28,18,13,96,73,41,30.12,29.90,29.75,10,10,7,18,5,28,0.00,3,Snow,238
2013-1-17,32,24,15,28,17,3,85,69,53,30.28,30.13,29.91,10,10,10,18,9,26,0.00,7,Snow,310
2013-1-18,36,24,11,21,13,5,89,66,47,30.39,30.20,29.89,10,10,2,24,7,38,0.00,4,Snow,211
2013-1-19,44,39,34,33,28,21,71,62,55,29.89,29.76,29.49,10,10,10,18,15,29,0.00,4,,224
2013-1-20,41,28,14,33,9,2,80,60,51,30.14,29.95,29.47,10,10,4,31,17,52,0.00,7,Snow,274
2013-1-21,16,10,3,11,2,-10,89,65,42,30.11,29.99,29.91,10,9,2,17,8,26,0.00,6,Snow,260
2013-1-22,9,4,-1,-2,-8,-13,76,59,42,30.22,30.16,30.04,10,10,7,16,9,24,0.00,3,,279
2013-1-23,15,8,0,12,3,-5,90,76,58,30.23,30.14,30.04,10,7,1,12,7,16,0.00,5,Snow,236
2013-1-24,15,8,1,9,3,-2,91,79,56,30.55,30.43,30.10,10,8,0,12,5,,0.00,2,Snow,310
2013-1-25,20,14,8,16,10,2,91,80,72,30.47,30.18,29.98,10,6,1,12,3,,0.01,7,Snow,151
2013-1-26,9,6,4,6,4,1,92,90,87,30.41,30.40,30.38,10,10,10,0,0,,0.00,0,,-1
2013-1-27,28,14,1,26,12,-2,94,79,57,30.45,30.36,30.14,10,8,1,15,3,20,0.09,5,Snow,152
2013-1-28,42,35,28,41,34,27,99,95,91,30.13,29.93,29.81,10,5,1,14,8,22,0.15,8,Rain-Snow,205
2013-1-29,56,44,33,53,43,32,100,94,87,30.00,29.74,29.46,10,6,0,22,7,30,1.05,8,Fog-Rain-Snow,168
2013-1-30,57,48,39,54,46,38,99,95,89,29.44,29.25,29.08,10,6,0,16,9,24,0.21,8,Fog-Rain,180
2013-1-31,23,20,16,16,12,8,86,73,57,29.82,29.69,29.57,10,8,1,21,13,29,0.00,8,Snow,273